Time;durP1;ratioP1;P1;durP2;ratioP2;P2;SDS_P1;SDS_P2;PMS_P1;PMS_P2;Temp;Humidity;BMP_temperature;BMP_pressure;BME280_temperature;BME280_humidity;BME280_pressure;Samples;Min_cycle;Max_cycle;Signal;HPM_P1;HPM_P2
2021/12/02 00:00:36;;;;;;;;;75.33;62.67;;;;;;;;6415429;22;10579;-80
2021/12/02 00:03:04;;;;;;;;;86.80;76.60;;;;;;;;6416118;22;8925;-80
2021/12/02 00:05:29;;;;;;;;;87.80;76.40;;;;;;;;6414516;22;8729;-80
2021/12/02 00:07:54;;;;;;;;;78.75;64.00;;;;;;;;6415192;22;11550;-79
2021/12/02 00:10:24;;;;;;;;;89.00;80.00;;;;;;;;6386744;22;8881;-80
2021/12/02 00:12:52;;;;;;;;;89.00;80.00;;;;;;;;6415635;22;9587;-80
2021/12/02 00:15:22;;;;;;;;;88.00;79.50;;;;;;;;6414673;22;11428;-80
2021/12/02 00:17:54;;;;;;;;;88.75;80.00;;;;;;;;6415403;22;8745;-79
2021/12/02 00:23:35;;;;;;;;;83.20;71.40;;;;;;;;6284922;22;8786;-80
2021/12/02 00:26:07;;;;;;;;;88.00;78.00;;;;;;;;6400950;22;8779;-80
2021/12/02 00:28:41;;;;;;;;;113.00;113.00;;;;;;;;6413860;22;9184;-80
2021/12/02 00:31:11;;;;;;;;;82.40;68.20;;;;;;;;6415636;22;8776;-80
2021/12/02 00:33:39;;;;;;;;;131.00;130.25;;;;;;;;6414165;22;8763;-80
2021/12/02 00:36:04;;;;;;;;;111.25;111.25;;;;;;;;6416306;22;8741;-80
2021/12/02 00:38:30;;;;;;;;;133.80;132.60;;;;;;;;6415886;22;8771;-80
2021/12/02 00:40:55;;;;;;;;;123.75;123.75;;;;;;;;6416813;22;8806;-80
2021/12/02 00:43:21;;;;;;;;;93.00;87.00;;;;;;;;6416740;22;8845;-80
2021/12/02 00:45:46;;;;;;;;;117.40;117.00;;;;;;;;6416476;22;8772;-80
2021/12/02 00:48:12;;;;;;;;;114.80;114.00;;;;;;;;6416315;22;8852;-80
2021/12/02 00:50:39;;;;;;;;;138.50;138.50;;;;;;;;6416141;22;8693;-80
2021/12/02 00:53:06;;;;;;;;;160.60;159.60;;;;;;;;6416174;22;8756;-78
2021/12/02 00:55:33;;;;;;;;;147.25;147.25;;;;;;;;6415623;22;8834;-80
2021/12/02 00:57:59;;;;;;;;;115.60;115.00;;;;;;;;6417026;22;8753;-80
2021/12/02 01:00:24;;;;;;;;;128.00;128.00;;;;;;;;6416208;22;8854;-80
2021/12/02 01:02:50;;;;;;;;;161.20;161.20;;;;;;;;6416630;22;8772;-81
2021/12/02 01:05:15;;;;;;;;;170.50;170.50;;;;;;;;6416269;22;8787;-81
2021/12/02 01:07:42;;;;;;;;;166.25;165.75;;;;;;;;6415643;22;9154;-80
2021/12/02 01:10:08;;;;;;;;;161.17;161.17;;;;;;;;6416017;22;8729;-81
2021/12/02 01:12:34;;;;;;;;;163.00;162.50;;;;;;;;6386965;22;8776;-80
2021/12/02 01:15:00;;;;;;;;;164.83;164.00;;;;;;;;6416521;22;8700;-80
2021/12/02 01:17:25;;;;;;;;;160.75;160.75;;;;;;;;6386925;22;8776;-80
2021/12/02 01:19:51;;;;;;;;;163.80;163.60;;;;;;;;6416210;22;8822;-80
2021/12/02 01:22:16;;;;;;;;;170.50;170.50;;;;;;;;6416168;22;8806;-80
2021/12/02 01:24:43;;;;;;;;;171.83;171.83;;;;;;;;6415550;22;8786;-80
2021/12/02 01:27:09;;;;;;;;;156.00;154.75;;;;;;;;6416349;22;8705;-80
2021/12/02 01:29:35;;;;;;;;;167.20;167.20;;;;;;;;6415730;22;9223;-80
2021/12/02 01:32:05;;;;;;;;;161.60;161.60;;;;;;;;6416660;22;8721;-80
2021/12/02 01:34:31;;;;;;;;;156.17;156.17;;;;;;;;6415087;22;11619;-80
2021/12/02 01:37:00;;;;;;;;;166.60;164.80;;;;;;;;6415891;22;8861;-80
2021/12/02 01:39:28;;;;;;;;;179.33;179.33;;;;;;;;6415349;22;8705;-80
2021/12/02 01:41:54;;;;;;;;;161.83;161.83;;;;;;;;6416211;22;8752;-80
2021/12/02 01:44:21;;;;;;;;;143.75;143.75;;;;;;;;6416040;22;8747;-80
2021/12/02 01:46:48;;;;;;;;;152.40;151.00;;;;;;;;6386391;22;10106;-80
2021/12/02 01:49:14;;;;;;;;;160.00;159.50;;;;;;;;6416018;22;8717;-80
2021/12/02 01:51:42;;;;;;;;;162.17;161.00;;;;;;;;6386393;22;8732;-80
2021/12/02 01:54:12;;;;;;;;;158.83;158.83;;;;;;;;6415637;22;8732;-80
2021/12/02 01:56:43;;;;;;;;;158.83;158.67;;;;;;;;6416115;22;8872;-80
2021/12/02 01:59:11;;;;;;;;;161.17;160.33;;;;;;;;6416444;22;8717;-80
2021/12/02 02:01:37;;;;;;;;;159.25;158.75;;;;;;;;6415813;22;9568;-80
2021/12/02 02:04:02;;;;;;;;;173.67;173.67;;;;;;;;6387251;22;9015;-80
2021/12/02 02:06:30;;;;;;;;;177.50;177.50;;;;;;;;6415043;22;8807;-80
2021/12/02 02:08:57;;;;;;;;;185.00;183.50;;;;;;;;6415416;22;8865;-80
2021/12/02 02:11:26;;;;;;;;;177.67;177.67;;;;;;;;6416005;22;8792;-80
2021/12/02 02:13:52;;;;;;;;;171.80;170.00;;;;;;;;6415806;22;8725;-80
2021/12/02 02:16:17;;;;;;;;;178.60;178.60;;;;;;;;6387049;22;8756;-80
2021/12/02 02:18:43;;;;;;;;;176.20;176.20;;;;;;;;6415555;22;8749;-81
2021/12/02 02:21:12;;;;;;;;;176.80;175.60;;;;;;;;6416022;22;8740;-80
2021/12/02 02:23:43;;;;;;;;;195.00;191.50;;;;;;;;6415113;22;8736;-80
2021/12/02 02:26:09;;;;;;;;;176.00;176.00;;;;;;;;6415738;22;8733;-80
2021/12/02 02:28:36;;;;;;;;;177.00;176.67;;;;;;;;6415638;22;8803;-80
2021/12/02 02:31:02;;;;;;;;;193.83;192.83;;;;;;;;6415840;22;8721;-79
2021/12/02 02:33:36;;;;;;;;;177.67;177.67;;;;;;;;6415626;22;8776;-80
2021/12/02 02:36:02;;;;;;;;;182.67;182.67;;;;;;;;6415815;22;8821;-80
2021/12/02 02:38:28;;;;;;;;;187.20;187.20;;;;;;;;6415155;22;8814;-80
2021/12/02 02:40:54;;;;;;;;;187.75;186.75;;;;;;;;6416007;22;8788;-80
2021/12/02 02:43:23;;;;;;;;;147.20;146.80;;;;;;;;6387020;22;8760;-80
2021/12/02 02:45:48;;;;;;;;;139.80;138.80;;;;;;;;6415654;22;8740;-80
2021/12/02 02:48:14;;;;;;;;;188.33;186.50;;;;;;;;6415606;22;8767;-80
2021/12/02 02:50:39;;;;;;;;;158.60;156.40;;;;;;;;6415370;22;8721;-80
2021/12/02 02:53:10;;;;;;;;;161.40;159.80;;;;;;;;6415809;22;10025;-80
2021/12/02 02:55:36;;;;;;;;;150.83;150.83;;;;;;;;6386729;22;8753;-80
2021/12/02 02:58:11;;;;;;;;;187.83;186.83;;;;;;;;6415379;22;8745;-80
2021/12/02 03:00:50;;;;;;;;;175.60;175.60;;;;;;;;6415331;22;8862;-80
2021/12/02 03:06:22;;;;;;;;;109.25;108.25;;;;;;;;6415432;22;8725;-80
2021/12/02 03:08:55;;;;;;;;;112.33;111.83;;;;;;;;6414881;22;8748;-80
2021/12/02 03:11:21;;;;;;;;;101.17;99.67;;;;;;;;6415978;22;8685;-80
2021/12/02 03:13:51;;;;;;;;;87.00;76.20;;;;;;;;6415936;22;8850;-80
2021/12/02 03:19:00;;;;;;;;;93.17;86.67;;;;;;;;6415787;22;8721;-80
2021/12/02 03:21:26;;;;;;;;;84.60;73.00;;;;;;;;6415183;22;8786;-80
2021/12/02 03:23:53;;;;;;;;;79.50;65.25;;;;;;;;6415637;22;8732;-80
2021/12/02 03:26:19;;;;;;;;;76.80;63.00;;;;;;;;6415772;22;8755;-80
2021/12/02 03:28:46;;;;;;;;;90.75;82.50;;;;;;;;6415454;22;8905;-81
2021/12/02 03:31:11;;;;;;;;;90.00;81.50;;;;;;;;6415487;22;8717;-80
2021/12/02 03:33:36;;;;;;;;;86.40;73.60;;;;;;;;6415742;22;8767;-80
2021/12/02 03:36:02;;;;;;;;;85.25;73.75;;;;;;;;6415790;22;8961;-80
2021/12/02 03:38:27;;;;;;;;;78.25;64.25;;;;;;;;6414865;22;8741;-81
2021/12/02 03:40:53;;;;;;;;;87.25;74.75;;;;;;;;6415868;22;8764;-80
2021/12/02 03:43:18;;;;;;;;;84.25;70.50;;;;;;;;6415501;22;9562;-80
2021/12/02 03:45:43;;;;;;;;;77.67;63.67;;;;;;;;6415440;22;8752;-80
2021/12/02 03:48:09;;;;;;;;;73.75;61.25;;;;;;;;6415486;22;9488;-80
2021/12/02 03:50:34;;;;;;;;;73.25;61.25;;;;;;;;6386586;22;8772;-80
2021/12/02 03:52:59;;;;;;;;;75.67;62.33;;;;;;;;6415431;22;8760;-80
2021/12/02 03:55:25;;;;;;;;;85.25;73.25;;;;;;;;6415146;22;8764;-80
2021/12/02 03:57:50;;;;;;;;;83.00;69.50;;;;;;;;6386971;22;8784;-80
2021/12/02 04:00:16;;;;;;;;;86.25;74.75;;;;;;;;6415518;22;8788;-80
2021/12/02 04:02:41;;;;;;;;;84.80;73.00;;;;;;;;6415382;22;8779;-80
2021/12/02 04:05:07;;;;;;;;;86.50;73.25;;;;;;;;6415611;22;8737;-80
2021/12/02 04:07:32;;;;;;;;;76.00;62.75;;;;;;;;6414494;22;8777;-80
2021/12/02 04:09:58;;;;;;;;;83.00;70.00;;;;;;;;6387239;22;8769;-80
2021/12/02 04:12:46;;;;;;;;;81.60;68.00;;;;;;;;6416727;22;8794;-80
2021/12/02 04:15:16;;;;;;;;;71.00;59.75;;;;;;;;6416948;22;8767;-80
2021/12/02 04:17:42;;;;;;;;;78.75;65.00;;;;;;;;6416404;22;8768;-80
2021/12/02 04:20:12;;;;;;;;;80.40;66.20;;;;;;;;6387654;22;11471;-80
2021/12/02 04:22:37;;;;;;;;;67.25;56.50;;;;;;;;6416686;22;8990;-79
2021/12/02 04:25:03;;;;;;;;;80.33;66.33;;;;;;;;6417088;22;8741;-80
2021/12/02 04:27:29;;;;;;;;;78.00;64.40;;;;;;;;6416473;22;8740;-79
2021/12/02 04:29:54;;;;;;;;;75.50;63.00;;;;;;;;6417048;22;8790;-80
2021/12/02 04:32:19;;;;;;;;;70.67;59.67;;;;;;;;6417033;22;8733;-79
2021/12/02 04:34:45;;;;;;;;;78.50;64.75;;;;;;;;6387826;22;8745;-80
2021/12/02 04:37:10;;;;;;;;;80.33;66.00;;;;;;;;6417119;22;9501;-80
2021/12/02 04:39:35;;;;;;;;;60.50;52.00;;;;;;;;6416132;22;8772;-80
2021/12/02 04:42:01;;;;;;;;;61.67;52.67;;;;;;;;6417146;22;8798;-80
2021/12/02 04:44:26;;;;;;;;;75.25;62.25;;;;;;;;6416269;22;8770;-80
2021/12/02 04:46:53;;;;;;;;;68.00;57.50;;;;;;;;6417135;22;8836;-80
2021/12/02 04:49:18;;;;;;;;;64.20;54.80;;;;;;;;6416708;22;8768;-80
2021/12/02 04:51:43;;;;;;;;;62.33;53.33;;;;;;;;6387825;22;8797;-80
2021/12/02 04:54:09;;;;;;;;;61.25;52.50;;;;;;;;6416564;22;8745;-79
2021/12/02 04:56:34;;;;;;;;;64.75;55.00;;;;;;;;6416501;22;8787;-79
2021/12/02 04:59:00;;;;;;;;;46.67;42.67;;;;;;;;6388507;22;8761;-79
2021/12/02 05:01:25;;;;;;;;;66.75;56.75;;;;;;;;6416594;22;10442;-79
2021/12/02 05:03:50;;;;;;;;;54.50;47.25;;;;;;;;6416967;22;8752;-79
2021/12/02 05:06:16;;;;;;;;;65.75;55.75;;;;;;;;6416738;22;8807;-79
2021/12/02 05:08:41;;;;;;;;;64.75;55.75;;;;;;;;6415909;22;8769;-80
2021/12/02 05:11:06;;;;;;;;;67.75;57.50;;;;;;;;6417280;22;8764;-79
2021/12/02 05:13:32;;;;;;;;;54.50;47.75;;;;;;;;6416461;22;8752;-79
2021/12/02 05:15:57;;;;;;;;;65.25;56.00;;;;;;;;6417199;22;8756;-79
2021/12/02 05:18:22;;;;;;;;;80.33;66.00;;;;;;;;6416634;22;8745;-80
2021/12/02 05:20:48;;;;;;;;;67.75;57.50;;;;;;;;6416397;22;8855;-79
2021/12/02 05:23:14;;;;;;;;;64.25;54.00;;;;;;;;6416407;22;8779;-79
2021/12/02 05:25:43;;;;;;;;;62.67;52.67;;;;;;;;6416684;22;10041;-79
2021/12/02 05:28:09;;;;;;;;;69.25;58.50;;;;;;;;6416955;22;8760;-79
2021/12/02 05:30:34;;;;;;;;;71.00;59.50;;;;;;;;6387530;22;8769;-79
2021/12/02 05:32:59;;;;;;;;;77.75;63.25;;;;;;;;6416833;22;9476;-79
2021/12/02 05:35:25;;;;;;;;;79.75;65.25;;;;;;;;6416423;22;8745;-79
2021/12/02 05:37:50;;;;;;;;;71.75;59.75;;;;;;;;6416323;22;8848;-78
2021/12/02 05:40:15;;;;;;;;;72.33;61.00;;;;;;;;6416911;22;8765;-79
2021/12/02 05:42:40;;;;;;;;;67.00;57.25;;;;;;;;6387759;22;8753;-79
2021/12/02 05:45:06;;;;;;;;;58.50;50.25;;;;;;;;6417033;22;8741;-79
2021/12/02 05:47:31;;;;;;;;;77.00;63.33;;;;;;;;6387347;22;8886;-79
2021/12/02 05:49:57;;;;;;;;;66.50;56.50;;;;;;;;6416430;22;8846;-79
2021/12/02 05:52:22;;;;;;;;;67.25;56.25;;;;;;;;6387686;22;8776;-79
2021/12/02 05:54:47;;;;;;;;;70.33;59.00;;;;;;;;6415968;22;8759;-79
2021/12/02 05:57:13;;;;;;;;;62.00;52.25;;;;;;;;6416702;22;8837;-80
2021/12/02 05:59:38;;;;;;;;;74.50;61.25;;;;;;;;6415993;22;8744;-79
2021/12/02 06:02:06;;;;;;;;;75.75;63.25;;;;;;;;6416554;22;8845;-79
2021/12/02 06:04:32;;;;;;;;;68.00;56.67;;;;;;;;6415892;22;8733;-80
2021/12/02 06:06:57;;;;;;;;;90.67;79.67;;;;;;;;6414906;22;8761;-80
2021/12/02 06:09:22;;;;;;;;;79.00;64.75;;;;;;;;6415911;22;8752;-79
2021/12/02 06:11:48;;;;;;;;;58.67;51.33;;;;;;;;6387437;22;8768;-79
2021/12/02 06:14:14;;;;;;;;;74.75;62.75;;;;;;;;6416345;22;8748;-78
2021/12/02 06:16:39;;;;;;;;;74.33;62.67;;;;;;;;6416315;22;8783;-79
2021/12/02 06:19:06;;;;;;;;;78.25;65.00;;;;;;;;6416240;22;10462;-80
2021/12/02 06:21:32;;;;;;;;;69.25;59.00;;;;;;;;6415811;22;8721;-79
2021/12/02 06:23:57;;;;;;;;;76.25;63.00;;;;;;;;6416026;22;8774;-80
2021/12/02 06:26:22;;;;;;;;;51.00;45.25;;;;;;;;6416268;22;8769;-79
2021/12/02 06:28:48;;;;;;;;;58.25;50.25;;;;;;;;6415511;22;8849;-80
2021/12/02 06:31:13;;;;;;;;;67.00;56.25;;;;;;;;6387010;22;8772;-80
2021/12/02 06:33:38;;;;;;;;;83.25;67.50;;;;;;;;6414891;22;8728;-80
2021/12/02 06:36:04;;;;;;;;;80.00;65.67;;;;;;;;6387330;22;8775;-80
2021/12/02 06:38:29;;;;;;;;;84.33;70.00;;;;;;;;6415683;22;8823;-80
2021/12/02 06:40:55;;;;;;;;;79.00;66.00;;;;;;;;6387335;22;9601;-80
2021/12/02 06:43:20;;;;;;;;;74.50;62.00;;;;;;;;6416453;22;8733;-78
2021/12/02 06:45:45;;;;;;;;;70.67;59.00;;;;;;;;6419148;22;8749;-80
2021/12/02 06:48:11;;;;;;;;;76.00;61.50;;;;;;;;6416163;22;8784;-78
2021/12/02 06:50:37;;;;;;;;;50.25;45.25;;;;;;;;6415597;22;8748;-79
2021/12/02 06:53:03;;;;;;;;;81.75;67.25;;;;;;;;6415774;22;8767;-79
2021/12/02 06:55:28;;;;;;;;;99.25;91.25;;;;;;;;6415465;22;8755;-79
2021/12/02 06:57:54;;;;;;;;;83.00;68.67;;;;;;;;6416362;22;8744;-79
2021/12/02 07:00:20;;;;;;;;;85.00;68.50;;;;;;;;6415687;22;9437;-78
2021/12/02 07:02:46;;;;;;;;;88.50;75.25;;;;;;;;6386623;22;8745;-78
2021/12/02 07:05:12;;;;;;;;;95.60;86.40;;;;;;;;6415771;22;8759;-79
2021/12/02 07:07:41;;;;;;;;;99.75;93.00;;;;;;;;6414897;22;8753;-81
2021/12/02 07:10:10;;;;;;;;;87.80;73.20;;;;;;;;6415625;22;8771;-79
2021/12/02 07:12:38;;;;;;;;;100.20;93.80;;;;;;;;6415441;22;8718;-79
2021/12/02 07:15:17;;;;;;;;;87.40;73.20;;;;;;;;6386943;22;8749;-79
2021/12/02 07:17:44;;;;;;;;;89.50;74.25;;;;;;;;6415746;22;8771;-79
2021/12/02 07:20:10;;;;;;;;;79.00;65.75;;;;;;;;6415683;22;9753;-79
2021/12/02 07:22:35;;;;;;;;;82.75;68.00;;;;;;;;6415428;22;8761;-79
2021/12/02 07:25:01;;;;;;;;;81.25;66.00;;;;;;;;6416127;22;8740;-80
2021/12/02 07:27:26;;;;;;;;;79.67;65.33;;;;;;;;6415525;22;8785;-80
2021/12/02 07:29:51;;;;;;;;;81.25;67.50;;;;;;;;6415841;22;8759;-79
2021/12/02 07:32:17;;;;;;;;;56.00;49.33;;;;;;;;6415722;22;8737;-80
2021/12/02 07:34:44;;;;;;;;;81.67;66.67;;;;;;;;6387034;22;8849;-79
2021/12/02 07:37:15;;;;;;;;;73.25;60.50;;;;;;;;6415671;22;8721;-79
2021/12/02 07:39:41;;;;;;;;;72.00;60.00;;;;;;;;6415611;22;8747;-79
2021/12/02 07:42:06;;;;;;;;;65.00;55.50;;;;;;;;6416003;22;8729;-78
2021/12/02 07:44:33;;;;;;;;;75.50;63.00;;;;;;;;6387354;22;8794;-79
2021/12/02 07:46:59;;;;;;;;;71.00;59.75;;;;;;;;6417030;22;8742;-78
2021/12/02 07:49:24;;;;;;;;;63.33;54.67;;;;;;;;6416476;22;8749;-79
2021/12/02 07:51:50;;;;;;;;;86.67;71.33;;;;;;;;6416990;22;9508;-79
2021/12/02 07:54:16;;;;;;;;;80.67;65.67;;;;;;;;6416455;22;8729;-79
2021/12/02 07:56:42;;;;;;;;;83.80;69.20;;;;;;;;6416972;22;8780;-78
2021/12/02 07:59:09;;;;;;;;;76.33;62.67;;;;;;;;6417186;22;8749;-79
2021/12/02 08:01:35;;;;;;;;;73.60;60.20;;;;;;;;6416632;22;9595;-79
2021/12/02 08:04:00;;;;;;;;;82.50;68.00;;;;;;;;6417093;22;8733;-79
2021/12/02 08:06:26;;;;;;;;;77.33;64.00;;;;;;;;6416179;22;8765;-79
2021/12/02 08:08:51;;;;;;;;;78.50;63.50;;;;;;;;6416825;22;8756;-79
2021/12/02 08:11:16;;;;;;;;;71.75;60.25;;;;;;;;6416896;22;8737;-79
2021/12/02 08:13:42;;;;;;;;;55.67;46.00;;;;;;;;6417007;22;8772;-79
2021/12/02 08:16:07;;;;;;;;;69.50;57.75;;;;;;;;6417435;22;8903;-79
2021/12/02 08:18:35;;;;;;;;;60.00;51.50;;;;;;;;6416443;22;8737;-79
2021/12/02 08:21:01;;;;;;;;;67.75;57.00;;;;;;;;6416998;22;8713;-79
2021/12/02 08:23:27;;;;;;;;;55.50;48.25;;;;;;;;6416028;22;11500;-79
2021/12/02 08:25:53;;;;;;;;;61.50;51.75;;;;;;;;6388362;22;9512;-79
2021/12/02 08:28:19;;;;;;;;;61.75;51.50;;;;;;;;6416801;22;8794;-79
2021/12/02 08:30:45;;;;;;;;;41.75;39.25;;;;;;;;6417069;22;8772;-79
2021/12/02 08:33:13;;;;;;;;;60.25;52.00;;;;;;;;6388083;22;8779;-79
2021/12/02 08:35:38;;;;;;;;;50.00;43.00;;;;;;;;6416108;22;8759;-79
2021/12/02 08:38:13;;;;;;;;;57.25;49.00;;;;;;;;6416702;22;8737;-79
2021/12/02 08:40:39;;;;;;;;;68.50;57.25;;;;;;;;6416582;22;8713;-79
2021/12/02 08:43:06;;;;;;;;;56.75;49.00;;;;;;;;6416768;22;8709;-79
2021/12/02 08:45:32;;;;;;;;;68.25;57.75;;;;;;;;6416239;22;8861;-79
2021/12/02 08:47:58;;;;;;;;;64.50;54.25;;;;;;;;6416540;22;8757;-79
2021/12/02 08:50:24;;;;;;;;;49.50;43.25;;;;;;;;6416192;22;8788;-79
2021/12/02 08:52:50;;;;;;;;;47.75;42.75;;;;;;;;6416467;22;8843;-79
2021/12/02 08:55:17;;;;;;;;;69.50;56.75;;;;;;;;6386998;22;8952;-79
2021/12/02 08:57:42;;;;;;;;;49.75;45.00;;;;;;;;6416638;22;9290;-79
2021/12/02 09:00:09;;;;;;;;;68.25;56.50;;;;;;;;6416842;22;8783;-79
2021/12/02 09:02:34;;;;;;;;;62.50;51.75;;;;;;;;6415615;22;8751;-79
2021/12/02 09:05:00;;;;;;;;;80.25;65.25;;;;;;;;6416611;22;8773;-79
2021/12/02 09:07:25;;;;;;;;;64.50;54.25;;;;;;;;6415578;22;8777;-79
2021/12/02 09:09:51;;;;;;;;;66.00;54.75;;;;;;;;6417102;22;8784;-80
2021/12/02 09:12:16;;;;;;;;;65.00;54.50;;;;;;;;6416702;22;8772;-78
2021/12/02 09:14:41;;;;;;;;;66.50;54.75;;;;;;;;6416305;22;8795;-78
2021/12/02 09:17:07;;;;;;;;;54.33;47.00;;;;;;;;6416714;22;8737;-79
2021/12/02 09:19:32;;;;;;;;;57.25;48.50;;;;;;;;6416141;22;8745;-79
2021/12/02 09:21:58;;;;;;;;;62.00;52.00;;;;;;;;6416557;22;8745;-79
2021/12/02 09:24:23;;;;;;;;;69.50;56.00;;;;;;;;6387263;22;8751;-79
2021/12/02 09:26:50;;;;;;;;;72.00;60.00;;;;;;;;6416539;22;8729;-79
2021/12/02 09:29:16;;;;;;;;;76.75;62.00;;;;;;;;6416638;22;8763;-79
2021/12/02 09:31:42;;;;;;;;;67.80;56.60;;;;;;;;6416180;22;8737;-78
2021/12/02 09:34:07;;;;;;;;;63.75;54.75;;;;;;;;6417004;22;8725;-79
2021/12/02 09:36:33;;;;;;;;;51.25;43.00;;;;;;;;6415829;22;8729;-79
2021/12/02 09:38:58;;;;;;;;;56.00;47.25;;;;;;;;6416567;22;9503;-77
2021/12/02 09:41:24;;;;;;;;;70.25;58.50;;;;;;;;6416120;22;8764;-77
2021/12/02 09:43:49;;;;;;;;;65.00;53.75;;;;;;;;6416297;22;9561;-77
2021/12/02 09:46:15;;;;;;;;;62.67;53.00;;;;;;;;6416443;22;8741;-78
2021/12/02 09:48:40;;;;;;;;;58.75;49.50;;;;;;;;6416007;22;9937;-77
2021/12/02 09:51:08;;;;;;;;;64.75;55.50;;;;;;;;6416493;22;9540;-77
2021/12/02 09:53:53;;;;;;;;;68.25;57.50;;;;;;;;6415789;22;9564;-77
2021/12/02 09:56:24;;;;;;;;;61.75;50.00;;;;;;;;6416385;22;8807;-77
2021/12/02 09:58:51;;;;;;;;;64.00;54.75;;;;;;;;6416457;22;8749;-77
2021/12/02 10:01:19;;;;;;;;;64.50;54.75;;;;;;;;6416285;22;8669;-77
2021/12/02 10:03:48;;;;;;;;;57.00;49.00;;;;;;;;6416135;22;8666;-77
2021/12/02 10:06:27;;;;;;;;;53.00;46.50;;;;;;;;6415689;22;8768;-76
2021/12/02 10:08:57;;;;;;;;;58.50;50.00;;;;;;;;6386863;22;8748;-76
2021/12/02 10:11:29;;;;;;;;;62.75;52.50;;;;;;;;6416360;22;8729;-77
2021/12/02 10:14:02;;;;;;;;;63.50;54.00;;;;;;;;6387377;22;8729;-77
2021/12/02 10:16:31;;;;;;;;;62.50;52.50;;;;;;;;6416057;22;8729;-78
2021/12/02 10:19:09;;;;;;;;;54.25;46.25;;;;;;;;6416080;22;8749;-78
2021/12/02 10:24:11;;;;;;;;;57.25;48.50;;;;;;;;6415884;22;8849;-77
2021/12/02 10:26:38;;;;;;;;;61.00;51.25;;;;;;;;6386972;22;8760;-78
2021/12/02 10:29:08;;;;;;;;;40.00;39.00;;;;;;;;6416367;22;8745;-79
2021/12/02 10:31:34;;;;;;;;;61.75;51.75;;;;;;;;6387471;22;8753;-79
2021/12/02 10:34:02;;;;;;;;;62.00;53.25;;;;;;;;6416594;22;8721;-79
2021/12/02 10:36:30;;;;;;;;;64.25;54.50;;;;;;;;6413255;22;8697;-79
2021/12/02 10:38:57;;;;;;;;;59.50;51.00;;;;;;;;6414504;22;8769;-80
2021/12/02 10:41:24;;;;;;;;;64.00;53.00;;;;;;;;6414505;22;8736;-80
2021/12/02 10:44:08;;;;;;;;;62.50;51.75;;;;;;;;6416196;22;8849;-80
2021/12/02 10:46:35;;;;;;;;;66.00;56.25;;;;;;;;6387069;22;8735;-80
2021/12/02 10:49:00;;;;;;;;;49.50;43.00;;;;;;;;6416042;22;8681;-80
2021/12/02 10:51:43;;;;;;;;;31.75;31.00;;;;;;;;6415520;22;8860;-79
2021/12/02 10:54:14;;;;;;;;;58.75;50.25;;;;;;;;6416080;22;9599;-80
2021/12/02 10:56:40;;;;;;;;;70.00;57.75;;;;;;;;6415740;22;8745;-80
2021/12/02 10:59:24;;;;;;;;;75.00;62.25;;;;;;;;6415902;22;8737;-80
2021/12/02 11:01:50;;;;;;;;;72.00;60.25;;;;;;;;6416016;22;11499;-80
2021/12/02 11:04:16;;;;;;;;;63.00;54.00;;;;;;;;6416105;22;8717;-80
2021/12/02 11:06:44;;;;;;;;;69.00;58.00;;;;;;;;6415701;22;8749;-80
2021/12/02 11:09:26;;;;;;;;;71.60;58.60;;;;;;;;6415283;22;8765;-80
2021/12/02 11:12:06;;;;;;;;;68.50;56.25;;;;;;;;6416172;22;8733;-78
2021/12/02 11:14:32;;;;;;;;;61.00;51.75;;;;;;;;6415318;22;9640;-77
2021/12/02 11:17:16;;;;;;;;;56.25;47.25;;;;;;;;6416012;22;8721;-78
2021/12/02 11:19:46;;;;;;;;;62.00;53.00;;;;;;;;6386278;22;8721;-81
2021/12/02 11:22:13;;;;;;;;;59.50;50.00;;;;;;;;6415751;22;8763;-81
2021/12/02 11:24:39;;;;;;;;;64.50;54.50;;;;;;;;6415631;22;8837;-77
2021/12/02 11:27:16;;;;;;;;;42.75;39.25;;;;;;;;6415987;22;8764;-77
2021/12/02 11:30:00;;;;;;;;;59.00;49.25;;;;;;;;6416172;22;8697;-77
2021/12/02 11:32:31;;;;;;;;;43.25;39.25;;;;;;;;6415708;22;8742;-77
2021/12/02 11:35:00;;;;;;;;;65.75;55.75;;;;;;;;6386718;22;8729;-77
2021/12/02 11:37:26;;;;;;;;;60.75;51.75;;;;;;;;6414949;22;11540;-77
2021/12/02 11:39:53;;;;;;;;;70.75;58.75;;;;;;;;6416239;22;8725;-77
2021/12/02 11:42:19;;;;;;;;;63.50;54.25;;;;;;;;6386875;22;8732;-77
2021/12/02 11:44:46;;;;;;;;;61.50;52.75;;;;;;;;6416046;22;8701;-78
2021/12/02 11:47:11;;;;;;;;;69.33;58.33;;;;;;;;6415359;22;8771;-77
2021/12/02 11:49:37;;;;;;;;;59.25;51.00;;;;;;;;6386504;22;8737;-77
2021/12/02 11:52:03;;;;;;;;;59.25;51.00;;;;;;;;6415975;22;8882;-77
2021/12/02 11:54:28;;;;;;;;;67.00;55.75;;;;;;;;6414743;22;8729;-77
2021/12/02 11:56:54;;;;;;;;;69.25;58.00;;;;;;;;6415864;22;9712;-78
2021/12/02 11:59:21;;;;;;;;;60.75;52.00;;;;;;;;6415910;22;8827;-78
2021/12/02 12:01:53;;;;;;;;;60.00;49.25;;;;;;;;6414993;22;8855;-78
2021/12/02 12:04:19;;;;;;;;;63.00;53.75;;;;;;;;6386475;22;8740;-78
2021/12/02 12:06:48;;;;;;;;;61.50;52.50;;;;;;;;6414476;22;8753;-78
2021/12/02 12:09:18;;;;;;;;;68.00;57.25;;;;;;;;6386126;22;8843;-78
2021/12/02 12:11:45;;;;;;;;;53.25;45.75;;;;;;;;6415239;22;8764;-78
2021/12/02 12:14:12;;;;;;;;;67.75;56.75;;;;;;;;6415689;22;8721;-78
2021/12/02 12:16:43;;;;;;;;;57.00;49.75;;;;;;;;6415228;22;8725;-78
2021/12/02 12:19:17;;;;;;;;;61.00;52.25;;;;;;;;6387026;22;8756;-78
2021/12/02 12:21:47;;;;;;;;;60.25;50.00;;;;;;;;6385957;22;8737;-77
2021/12/02 12:24:15;;;;;;;;;45.00;41.75;;;;;;;;6415301;22;8713;-77
2021/12/02 12:26:43;;;;;;;;;58.00;49.25;;;;;;;;6415592;22;8733;-77
2021/12/02 12:29:13;;;;;;;;;39.50;38.25;;;;;;;;6386837;22;8737;-77
2021/12/02 12:31:49;;;;;;;;;55.00;46.50;;;;;;;;6416028;22;8751;-77
2021/12/02 12:34:36;;;;;;;;;57.50;50.00;;;;;;;;6417334;22;8748;-77
2021/12/02 12:37:31;;;;;;;;;56.25;48.50;;;;;;;;6417069;22;8839;-77
2021/12/02 12:40:17;;;;;;;;;57.00;49.00;;;;;;;;6417384;22;8729;-77
2021/12/02 12:42:42;;;;;;;;;45.25;41.75;;;;;;;;6416551;22;8799;-77
2021/12/02 12:45:09;;;;;;;;;51.67;45.67;;;;;;;;6417232;22;8752;-77
2021/12/02 12:47:41;;;;;;;;;51.25;44.75;;;;;;;;6416418;22;8764;-76
2021/12/02 12:50:23;;;;;;;;;39.75;37.75;;;;;;;;6417428;22;8729;-77
2021/12/02 12:53:04;;;;;;;;;61.75;52.75;;;;;;;;6416807;22;8788;-77
2021/12/02 12:55:30;;;;;;;;;51.00;44.75;;;;;;;;6416161;22;8756;-77
2021/12/02 12:58:22;;;;;;;;;61.75;52.75;;;;;;;;6388478;22;8909;-76
2021/12/02 13:00:52;;;;;;;;;47.00;40.75;;;;;;;;6355033;22;8848;-77
2021/12/02 13:03:28;;;;;;;;;42.50;40.25;;;;;;;;6416739;22;8713;-77
2021/12/02 13:05:57;;;;;;;;;36.00;35.25;;;;;;;;6416446;22;8829;-76
2021/12/02 13:08:30;;;;;;;;;60.50;51.75;;;;;;;;6387885;22;8745;-77
2021/12/02 13:10:57;;;;;;;;;32.75;32.75;;;;;;;;6388510;22;8760;-77
2021/12/02 13:13:27;;;;;;;;;58.25;50.00;;;;;;;;6416948;22;8717;-77
2021/12/02 13:15:53;;;;;;;;;26.50;25.50;;;;;;;;6416277;22;8725;-77
2021/12/02 13:18:32;;;;;;;;;57.50;49.00;;;;;;;;6416835;22;8846;-77
2021/12/02 13:20:58;;;;;;;;;21.00;20.50;;;;;;;;6416936;22;8779;-77
2021/12/02 13:23:26;;;;;;;;;50.00;44.25;;;;;;;;6416265;22;8713;-77
2021/12/02 13:25:54;;;;;;;;;54.25;47.25;;;;;;;;6388331;22;8744;-77
2021/12/02 13:28:29;;;;;;;;;43.75;40.25;;;;;;;;6417057;22;8749;-77
2021/12/02 13:30:58;;;;;;;;;51.25;45.50;;;;;;;;6387943;22;8744;-77
2021/12/02 13:33:44;;;;;;;;;48.00;42.50;;;;;;;;6416520;22;8721;-76
2021/12/02 13:36:11;;;;;;;;;41.00;39.50;;;;;;;;6416943;22;8737;-77
2021/12/02 13:38:36;;;;;;;;;46.50;41.75;;;;;;;;6416003;22;8745;-77
2021/12/02 13:41:16;;;;;;;;;57.25;47.00;;;;;;;;6387858;22;8741;-77
2021/12/02 13:43:51;;;;;;;;;46.50;38.50;;;;;;;;6416214;22;8725;-77
2021/12/02 13:46:16;;;;;;;;;31.25;31.25;;;;;;;;6416354;22;8724;-77
2021/12/02 13:48:55;;;;;;;;;34.00;33.33;;;;;;;;6416167;22;8803;-77
2021/12/02 13:54:21;;;;;;;;;49.75;43.75;;;;;;;;6416008;22;9607;-77
2021/12/02 13:56:47;;;;;;;;;33.75;33.75;;;;;;;;6417015;22;8760;-77
2021/12/02 13:59:19;;;;;;;;;51.00;44.75;;;;;;;;6416490;22;8741;-77
2021/12/02 14:01:57;;;;;;;;;57.75;49.75;;;;;;;;6416048;22;8713;-77
2021/12/02 14:04:24;;;;;;;;;53.25;45.25;;;;;;;;6416626;22;8747;-77
2021/12/02 14:07:07;;;;;;;;;58.75;50.25;;;;;;;;6387025;22;8841;-77
2021/12/02 14:09:42;;;;;;;;;43.25;40.25;;;;;;;;6414808;22;8745;-77
2021/12/02 14:12:07;;;;;;;;;56.50;47.50;;;;;;;;6416988;22;8721;-77
2021/12/02 14:14:33;;;;;;;;;60.50;51.50;;;;;;;;6416059;22;8872;-77
2021/12/02 14:17:05;;;;;;;;;42.00;39.00;;;;;;;;6387500;22;8777;-77
2021/12/02 14:19:30;;;;;;;;;60.50;50.25;;;;;;;;6386243;22;8729;-77
2021/12/02 14:21:56;;;;;;;;;60.00;51.00;;;;;;;;6415856;22;8849;-77
2021/12/02 14:24:22;;;;;;;;;59.75;51.50;;;;;;;;6386132;22;8761;-77
2021/12/02 14:26:47;;;;;;;;;46.67;42.33;;;;;;;;6415396;22;8805;-78
2021/12/02 14:29:13;;;;;;;;;55.33;48.00;;;;;;;;6415742;22;11477;-77
2021/12/02 14:31:42;;;;;;;;;53.50;46.75;;;;;;;;6415504;22;8883;-77
2021/12/02 14:34:10;;;;;;;;;66.50;56.25;;;;;;;;6415845;22;8709;-77
2021/12/02 14:36:46;;;;;;;;;58.25;49.25;;;;;;;;6415642;22;8678;-77
2021/12/02 14:39:14;;;;;;;;;48.75;43.75;;;;;;;;6416191;22;8771;-77
2021/12/02 14:41:41;;;;;;;;;55.75;47.75;;;;;;;;6386981;22;8733;-77